createdAt,value
2018-03-14T00:00:42.218Z,1.70
2018-03-14T00:03:10.456Z,2.03
2018-03-14T00:05:38.718Z,1.80
2018-03-14T00:08:06.951Z,2.00
2018-03-14T00:10:35.191Z,1.97
2018-03-14T00:13:03.449Z,1.83
2018-03-14T00:15:31.695Z,1.87
2018-03-14T00:17:59.936Z,2.00
2018-03-14T00:20:28.535Z,2.10
2018-03-14T00:22:56.784Z,1.93
2018-03-14T00:25:25.028Z,2.10
2018-03-14T00:27:53.281Z,2.27
2018-03-14T00:30:21.522Z,2.30
2018-03-14T00:32:49.771Z,2.60
2018-03-14T00:35:18.787Z,2.22
2018-03-14T00:37:47.796Z,2.10
2018-03-14T00:40:16.056Z,2.37
2018-03-14T00:42:45.064Z,2.23
2018-03-14T00:45:14.074Z,2.13
2018-03-14T00:47:42.323Z,2.47
2018-03-14T00:50:11.376Z,2.57
2018-03-14T00:52:39.765Z,2.58
2018-03-14T00:55:08.017Z,2.63
2018-03-14T00:57:37.036Z,2.58
2018-03-14T01:00:05.294Z,2.40
2018-03-14T01:02:33.553Z,2.67
2018-03-14T01:05:02.559Z,2.62
2018-03-14T01:07:31.576Z,2.63
2018-03-14T01:09:59.828Z,2.77
2018-03-14T01:12:28.891Z,2.22
2018-03-14T01:14:57.096Z,2.95
2018-03-14T01:17:25.337Z,3.10
2018-03-14T01:19:53.586Z,2.80
2018-03-14T01:22:21.841Z,3.00
2018-03-14T01:24:50.848Z,2.97
2018-03-14T01:27:19.876Z,3.10
2018-03-14T01:29:48.116Z,2.90
2018-03-14T01:32:17.142Z,3.20
2018-03-14T01:34:45.403Z,3.17
2018-03-14T01:37:14.416Z,2.70
2018-03-14T01:39:42.662Z,3.20
2018-03-14T01:42:10.908Z,3.30
2018-03-14T01:44:39.157Z,3.70
2018-03-14T01:47:07.396Z,3.53
2018-03-14T01:49:35.636Z,3.00
2018-03-14T01:52:03.892Z,3.23
2018-03-14T01:54:32.131Z,3.50
2018-03-14T01:57:00.388Z,3.90
2018-03-14T01:59:28.628Z,4.10
2018-03-14T02:01:56.892Z,3.97
2018-03-14T02:04:26.164Z,4.33
2018-03-14T02:06:54.408Z,4.10
2018-03-14T02:09:22.643Z,4.90
2018-03-14T02:11:51.664Z,4.57
2018-03-14T02:14:20.672Z,4.33
2018-03-14T02:16:48.932Z,4.33
2018-03-14T02:19:17.944Z,4.70
2018-03-14T02:21:46.213Z,4.10
2018-03-14T02:24:15.485Z,4.27
2018-03-14T02:26:43.716Z,4.57
2018-03-14T02:29:11.960Z,5.17
2018-03-14T02:31:40.213Z,4.87
2018-03-14T02:34:08.456Z,4.93
2018-03-14T02:36:54.292Z,4.80
2018-03-14T02:39:22.532Z,4.77
2018-03-14T02:41:50.787Z,4.85
2018-03-14T02:44:19.040Z,5.03
2018-03-14T02:46:49.292Z,4.70
2018-03-14T02:49:18.307Z,4.77
2018-03-14T02:51:46.544Z,4.47
2018-03-14T02:54:14.791Z,4.13
2018-03-14T02:56:43.028Z,4.63
2018-03-14T02:59:12.027Z,4.07
2018-03-14T03:01:40.292Z,4.07
2018-03-14T03:04:08.536Z,4.07
2018-03-14T03:06:36.776Z,3.77
2018-03-14T03:09:05.299Z,4.57
2018-03-14T03:11:33.543Z,3.63
2018-03-14T03:14:01.806Z,3.83
2018-03-14T03:16:30.816Z,4.20
2018-03-14T03:18:59.065Z,3.50
2018-03-14T03:21:27.312Z,4.32
2018-03-14T03:23:55.548Z,3.60
2018-03-14T03:26:24.568Z,4.07
2018-03-14T03:28:52.804Z,3.92
2018-03-14T03:31:21.057Z,3.65
2018-03-14T03:33:49.292Z,4.20
2018-03-14T03:36:17.540Z,4.10
2018-03-14T03:38:45.791Z,4.20
2018-03-14T03:41:14.043Z,3.67
2018-03-14T03:43:42.288Z,3.77
2018-03-14T03:46:10.559Z,3.70
2018-03-14T03:48:38.799Z,3.93
2018-03-14T03:51:07.044Z,3.93
2018-03-14T03:53:36.071Z,3.73
2018-03-14T03:56:04.329Z,4.50
2018-03-14T03:58:32.569Z,4.87
2018-03-14T04:01:00.820Z,4.75
2018-03-14T04:03:29.064Z,4.68
2018-03-14T04:05:58.080Z,4.80
2018-03-14T04:08:26.311Z,3.97
2018-03-14T04:10:54.576Z,4.22
2018-03-14T04:13:22.817Z,4.72
2018-03-14T04:15:51.060Z,4.50
2018-03-14T04:18:19.316Z,5.10
2018-03-14T04:20:47.558Z,4.93
2018-03-14T04:23:15.804Z,4.53
2018-03-14T04:25:44.832Z,4.30
2018-03-14T04:28:13.090Z,5.10
2018-03-14T04:30:42.094Z,5.13
2018-03-14T04:33:11.112Z,4.90
2018-03-14T04:35:39.355Z,4.90
2018-03-14T04:38:07.724Z,4.93
2018-03-14T04:40:35.984Z,5.73
2018-03-14T04:43:04.219Z,6.12
2018-03-14T04:45:32.476Z,6.43
2018-03-14T04:48:00.728Z,6.47
2018-03-14T04:50:28.977Z,6.80
2018-03-14T04:52:57.240Z,6.95
2018-03-14T04:55:26.256Z,4.97
2018-03-14T04:57:54.496Z,5.67
2018-03-14T05:00:23.515Z,7.15
2018-03-14T05:02:51.763Z,7.77
2018-03-14T05:05:20.034Z,7.35
2018-03-14T05:07:48.269Z,8.70
2018-03-14T05:10:16.519Z,7.87
2018-03-14T05:12:45.530Z,6.70
2018-03-14T05:15:14.560Z,8.40
2018-03-14T05:17:42.804Z,7.63
2018-03-14T05:20:13.059Z,9.17
2018-03-14T05:22:41.308Z,8.47
2018-03-14T05:25:10.325Z,8.53
2018-03-14T05:27:38.588Z,7.87
2018-03-14T05:30:07.591Z,8.03
2018-03-14T05:32:35.836Z,8.20
2018-03-14T05:35:04.092Z,9.23
2018-03-14T05:37:32.330Z,8.57
2018-03-14T05:40:01.343Z,8.43
2018-03-14T05:42:29.591Z,7.03
2018-03-14T05:44:58.612Z,8.02
2018-03-14T05:47:26.860Z,5.27
2018-03-14T05:49:55.112Z,4.47
2018-03-14T05:52:23.364Z,4.03
2018-03-14T05:54:51.609Z,4.13
2018-03-14T05:57:20.623Z,4.70
2018-03-14T05:59:48.880Z,5.87
2018-03-14T06:02:18.713Z,5.65
2018-03-14T06:04:48.964Z,5.07
2018-03-14T06:07:17.210Z,5.47
2018-03-14T06:09:46.232Z,5.77
2018-03-14T06:12:14.484Z,5.93
2018-03-14T06:14:43.504Z,6.60
2018-03-14T06:17:12.524Z,11.27
2018-03-14T06:19:40.764Z,7.77
2018-03-14T06:22:09.767Z,7.43
2018-03-14T06:24:38.594Z,7.18
2018-03-14T06:27:06.949Z,7.22
2018-03-14T06:29:35.943Z,5.93
2018-03-14T06:32:04.969Z,5.60
2018-03-14T06:34:33.217Z,5.47
2018-03-14T06:37:02.216Z,5.60
2018-03-14T06:39:31.252Z,5.10
2018-03-14T06:41:59.500Z,4.43
2018-03-14T06:44:27.752Z,4.73
2018-03-14T06:46:56.004Z,4.75
2018-03-14T06:49:24.239Z,5.07
2018-03-14T06:51:53.256Z,5.80
2018-03-14T06:54:21.510Z,6.10
2018-03-14T06:56:50.533Z,6.13
2018-03-14T06:59:36.392Z,6.77
2018-03-14T07:02:22.892Z,6.70
2018-03-14T07:05:09.472Z,6.87
2018-03-14T07:07:38.507Z,7.03
2018-03-14T07:10:06.765Z,6.27
2018-03-14T07:12:35.788Z,6.50
2018-03-14T07:15:04.040Z,6.25
2018-03-14T07:17:33.051Z,6.03
2018-03-14T07:20:01.310Z,6.23
2018-03-14T07:22:30.471Z,6.97
2018-03-14T07:24:58.717Z,6.30
2018-03-14T07:27:27.368Z,6.35
2018-03-14T07:29:55.636Z,6.63
2018-03-14T07:32:23.876Z,7.73
2018-03-14T07:34:52.116Z,5.73
2018-03-14T07:37:21.131Z,5.80
2018-03-14T07:39:50.214Z,5.10
2018-03-14T07:42:18.457Z,5.47
2018-03-14T07:44:46.712Z,4.97
2018-03-14T07:47:14.960Z,4.50
2018-03-14T07:49:43.968Z,5.17
2018-03-14T07:52:12.219Z,5.20
2018-03-14T07:54:40.470Z,4.60
2018-03-14T07:57:08.711Z,4.82
2018-03-14T07:59:36.968Z,4.60
2018-03-14T08:02:05.982Z,4.57
2018-03-14T08:04:35.111Z,4.63
2018-03-14T08:07:03.344Z,4.27
2018-03-14T08:09:32.353Z,4.20
2018-03-14T08:12:01.371Z,4.97
2018-03-14T08:14:29.615Z,5.23
2018-03-14T08:16:57.857Z,4.93
2018-03-14T08:19:26.109Z,4.93
2018-03-14T08:21:54.352Z,5.23
2018-03-14T08:24:22.599Z,5.17
2018-03-14T08:26:50.847Z,4.23
2018-03-14T08:29:19.083Z,4.10
2018-03-14T08:31:47.335Z,3.73
2018-03-14T08:34:15.590Z,3.53
2018-03-14T08:36:43.839Z,3.47
2018-03-14T08:39:12.851Z,3.70
2018-03-14T08:41:43.116Z,3.50
2018-03-14T08:44:11.374Z,3.83
2018-03-14T08:46:39.618Z,3.90
2018-03-14T08:49:07.867Z,4.15
2018-03-14T08:51:36.100Z,4.50
2018-03-14T08:54:04.368Z,4.93
2018-03-14T08:56:33.393Z,4.93
2018-03-14T08:59:01.702Z,4.60
2018-03-14T09:01:29.958Z,5.53
2018-03-14T09:03:58.216Z,5.20
2018-03-14T09:06:27.237Z,4.97
2018-03-14T09:08:55.491Z,5.30
2018-03-14T09:11:24.495Z,5.30
2018-03-14T09:13:53.511Z,5.40
2018-03-14T09:16:21.779Z,5.87
2018-03-14T09:18:50.777Z,5.60
2018-03-14T09:21:19.018Z,5.73
2018-03-14T09:23:47.279Z,5.73
2018-03-14T09:26:15.525Z,5.77
2018-03-14T09:28:43.782Z,5.60
2018-03-14T09:31:12.784Z,6.00
2018-03-14T09:33:41.912Z,5.57
2018-03-14T09:36:10.152Z,5.50
2018-03-14T09:38:39.157Z,5.50
2018-03-14T09:41:08.198Z,5.87
2018-03-14T09:43:36.452Z,5.43
2018-03-14T09:46:05.474Z,5.50
2018-03-14T09:48:33.712Z,5.37
2018-03-14T09:51:02.737Z,5.70
2018-03-14T09:53:31.009Z,6.00
2018-03-14T09:55:59.824Z,6.00
2018-03-14T09:58:28.085Z,6.40
2018-03-14T10:00:56.344Z,7.20
2018-03-14T10:03:25.352Z,6.70
2018-03-14T10:05:54.363Z,6.83
2018-03-14T10:08:22.625Z,6.33
2018-03-14T10:10:51.675Z,6.03
2018-03-14T10:13:19.911Z,6.63
2018-03-14T10:15:48.156Z,5.93
2018-03-14T10:18:16.449Z,7.40
2018-03-14T10:20:44.688Z,6.27
2018-03-14T10:23:12.948Z,6.60
2018-03-14T10:25:41.275Z,6.93
2018-03-14T10:28:09.447Z,6.63
2018-03-14T10:30:37.700Z,6.63
2018-03-14T10:33:05.944Z,6.75
2018-03-14T10:35:34.972Z,7.27
2018-03-14T10:38:03.218Z,6.73
2018-03-14T10:40:32.233Z,5.73
2018-03-14T10:43:00.502Z,5.63
2018-03-14T10:45:29.513Z,5.53
2018-03-14T10:47:57.793Z,5.90
2018-03-14T10:50:26.045Z,5.50
2018-03-14T10:52:55.057Z,5.54
2018-03-14T10:55:24.084Z,5.10
2018-03-14T10:57:52.355Z,5.23
2018-03-14T11:00:25.982Z,5.40
2018-03-14T11:02:59.769Z,4.97
2018-03-14T11:05:28.024Z,5.30
2018-03-14T11:07:57.041Z,5.60
2018-03-14T11:10:25.321Z,5.03
2018-03-14T11:12:53.567Z,5.40
2018-03-14T11:15:22.586Z,4.97
2018-03-14T11:17:50.860Z,5.37
2018-03-14T11:20:19.951Z,5.20
2018-03-14T11:22:49.405Z,5.20
2018-03-14T11:25:17.658Z,5.20
2018-03-14T11:27:45.911Z,5.23
2018-03-14T11:30:14.927Z,5.13
2018-03-14T11:32:43.940Z,5.18
2018-03-14T11:35:12.206Z,5.10
2018-03-14T11:37:41.213Z,5.10
2018-03-14T11:40:09.464Z,4.90
2018-03-14T11:42:38.491Z,5.33
2018-03-14T11:45:06.747Z,5.00
2018-03-14T11:47:35.770Z,5.00
2018-03-14T11:50:04.029Z,4.67
2018-03-14T11:52:33.059Z,5.00
2018-03-14T11:55:01.315Z,5.27
2018-03-14T11:57:31.575Z,4.68
2018-03-14T11:59:59.828Z,5.12
2018-03-14T12:02:28.087Z,4.97
2018-03-14T12:04:57.107Z,5.30
2018-03-14T12:07:25.414Z,5.28
2018-03-14T12:09:54.394Z,5.25
2018-03-14T12:12:22.682Z,5.45
2018-03-14T12:14:51.665Z,5.67
2018-03-14T12:17:19.928Z,5.32
2018-03-14T12:19:48.952Z,5.55
2018-03-14T12:22:22.612Z,5.25
2018-03-14T12:24:50.868Z,5.00
2018-03-14T12:27:19.120Z,5.37
2018-03-14T12:29:47.384Z,5.25
2018-03-14T12:32:15.648Z,5.25
2018-03-14T12:34:44.668Z,4.70
2018-03-14T12:37:12.908Z,5.10
2018-03-14T12:39:41.227Z,4.90
2018-03-14T12:42:09.483Z,5.35
2018-03-14T12:44:37.684Z,5.00
2018-03-14T12:47:05.973Z,5.50
2018-03-14T12:49:34.220Z,4.65
2018-03-14T12:52:03.253Z,5.03
2018-03-14T12:54:31.515Z,5.30
2018-03-14T12:57:00.545Z,5.27
2018-03-14T12:59:28.816Z,5.97
2018-03-14T13:01:57.071Z,5.33
2018-03-14T13:04:25.332Z,5.63
2018-03-14T13:06:53.576Z,5.10
2018-03-14T13:09:21.832Z,5.40
2018-03-14T13:11:50.145Z,5.23
2018-03-14T13:14:18.350Z,5.37
2018-03-14T13:16:46.601Z,5.60
2018-03-14T13:19:14.875Z,5.60
2018-03-14T13:21:43.119Z,6.07
2018-03-14T13:24:11.804Z,5.67
2018-03-14T13:26:40.837Z,5.53
2018-03-14T13:29:09.084Z,5.60
2018-03-14T13:31:38.098Z,5.67
2018-03-14T13:34:06.345Z,5.23
2018-03-14T13:36:35.370Z,5.90
2018-03-14T13:39:03.616Z,5.67
2018-03-14T13:41:32.612Z,5.07
2018-03-14T13:44:00.864Z,5.43
2018-03-14T13:46:29.128Z,5.45
2018-03-14T13:48:57.388Z,5.30
2018-03-14T13:51:25.632Z,5.90
2018-03-14T13:53:53.901Z,6.17
2018-03-14T13:56:22.152Z,5.83
2018-03-14T13:58:50.397Z,5.90
2018-03-14T14:01:18.664Z,5.47
2018-03-14T14:03:47.680Z,5.60
2018-03-14T14:06:15.924Z,5.93
2018-03-14T14:08:44.189Z,5.70
2018-03-14T14:11:12.440Z,5.63
2018-03-14T14:13:40.707Z,5.50
2018-03-14T14:16:08.968Z,5.10
2018-03-14T14:18:37.989Z,4.93
2018-03-14T14:21:06.237Z,4.70
2018-03-14T14:23:35.261Z,5.17
2018-03-14T14:26:03.512Z,5.10
2018-03-14T14:28:32.664Z,5.40
2018-03-14T14:31:02.396Z,5.33
2018-03-14T14:33:30.655Z,5.23
2018-03-14T14:35:58.917Z,5.20
2018-03-14T14:38:27.164Z,5.22
2018-03-14T14:40:55.458Z,5.40
2018-03-14T14:43:24.477Z,5.60
2018-03-14T14:45:52.725Z,5.13
2018-03-14T14:48:20.984Z,5.40
2018-03-14T14:50:49.824Z,5.35
2018-03-14T14:53:18.081Z,4.93
2018-03-14T14:55:46.335Z,5.03
2018-03-14T14:58:14.585Z,4.80
2018-03-14T15:00:42.836Z,5.53
2018-03-14T15:03:11.875Z,4.93
2018-03-14T15:05:40.112Z,5.10
2018-03-14T15:08:09.124Z,4.67
2018-03-14T15:10:37.376Z,4.37
2018-03-14T15:13:06.386Z,4.55
2018-03-14T15:15:35.408Z,4.60
2018-03-14T15:18:03.652Z,4.70
2018-03-14T15:20:32.692Z,4.57
2018-03-14T15:23:00.968Z,5.00
2018-03-14T15:25:29.213Z,4.30
2018-03-14T15:27:58.288Z,4.30
2018-03-14T15:30:26.480Z,4.83
2018-03-14T15:32:54.743Z,4.85
2018-03-14T15:35:23.189Z,4.80
2018-03-14T15:37:51.466Z,5.20
2018-03-14T15:40:20.481Z,4.68
2018-03-14T15:42:50.001Z,4.53
2018-03-14T15:45:19.066Z,4.45
2018-03-14T15:47:47.307Z,4.87
2018-03-14T15:50:15.561Z,4.70
2018-03-14T15:52:43.816Z,4.63
2018-03-14T15:55:12.076Z,5.00
2018-03-14T15:57:41.085Z,4.50
2018-03-14T16:00:09.327Z,4.53
2018-03-14T16:02:37.580Z,4.40
2018-03-14T16:05:05.822Z,4.30
2018-03-14T16:07:34.068Z,4.57
2018-03-14T16:10:02.320Z,4.73
2018-03-14T16:12:30.565Z,4.10
2018-03-14T16:14:58.800Z,4.47
2018-03-14T16:17:27.059Z,4.37
2018-03-14T16:19:55.316Z,4.37
2018-03-14T16:22:23.551Z,4.40
2018-03-14T16:24:52.572Z,3.90
2018-03-14T16:27:21.583Z,4.83
2018-03-14T16:29:49.832Z,4.40
2018-03-14T16:32:18.844Z,4.53
2018-03-14T16:34:47.868Z,4.40
2018-03-14T16:37:16.158Z,5.53
2018-03-14T16:39:44.389Z,4.80
2018-03-14T16:42:12.640Z,4.18
2018-03-14T16:44:40.941Z,4.57
2018-03-14T16:47:09.124Z,4.23
2018-03-14T16:49:38.152Z,4.40
2018-03-14T16:52:06.392Z,4.23
2018-03-14T16:54:34.642Z,4.50
2018-03-14T16:57:02.875Z,3.97
2018-03-14T16:59:31.897Z,4.47
2018-03-14T17:02:00.184Z,3.92
2018-03-14T17:04:28.422Z,4.47
2018-03-14T17:06:57.427Z,4.13
2018-03-14T17:09:26.444Z,4.43
2018-03-14T17:11:54.679Z,4.50
2018-03-14T17:14:27.280Z,5.35
2018-03-14T17:16:51.176Z,6.20
2018-03-14T17:19:20.184Z,5.50
2018-03-14T17:21:48.428Z,6.17
2018-03-14T17:24:16.675Z,6.17
2018-03-14T17:26:44.937Z,6.50
2018-03-14T17:29:13.176Z,6.68
2018-03-14T17:31:42.201Z,6.57
2018-03-14T17:34:10.442Z,7.30
2018-03-14T17:36:38.679Z,7.20
2018-03-14T17:39:06.935Z,7.30
2018-03-14T17:41:35.184Z,8.30
2018-03-14T17:44:03.424Z,7.97
2018-03-14T17:46:31.820Z,8.17
2018-03-14T17:49:00.075Z,8.43
2018-03-14T17:51:28.358Z,8.10
2018-03-14T17:53:57.356Z,7.77
2018-03-14T17:56:25.589Z,8.83
2018-03-14T17:58:54.605Z,8.52
2018-03-14T18:01:23.840Z,10.80
2018-03-14T18:03:52.091Z,12.40
2018-03-14T18:06:22.349Z,10.10
2018-03-14T18:08:50.605Z,9.73
2018-03-14T18:11:18.852Z,11.30
2018-03-14T18:13:47.096Z,9.10
2018-03-14T18:16:15.479Z,8.10
2018-03-14T18:18:43.736Z,8.77
2018-03-14T18:21:11.986Z,8.95
2018-03-14T18:23:41.008Z,9.90
2018-03-14T18:26:09.250Z,9.30
2018-03-14T18:28:37.493Z,10.37
2018-03-14T18:31:05.755Z,10.90
2018-03-14T18:33:34.006Z,11.83
2018-03-14T18:36:03.025Z,11.48
2018-03-14T18:38:31.324Z,12.40
2018-03-14T18:41:00.306Z,13.50
2018-03-14T18:43:28.572Z,12.70
2018-03-14T18:45:57.576Z,14.30
2018-03-14T18:48:26.844Z,13.10
2018-03-14T18:50:55.128Z,13.85
2018-03-14T18:53:23.379Z,13.40
2018-03-14T18:55:51.625Z,14.87
2018-03-14T18:58:20.760Z,15.77
2018-03-14T19:00:50.850Z,16.42
2018-03-14T19:03:19.091Z,16.70
2018-03-14T19:05:47.341Z,15.57
2018-03-14T19:08:15.600Z,15.23
2018-03-14T19:10:43.847Z,14.50
2018-03-14T19:13:12.862Z,14.67
2018-03-14T19:15:41.119Z,14.87
2018-03-14T19:18:10.132Z,16.80
2018-03-14T19:20:38.391Z,15.30
2018-03-14T19:23:07.424Z,14.93
2018-03-14T19:25:35.664Z,14.80
2018-03-14T19:28:03.916Z,17.00
2018-03-14T19:30:32.184Z,16.27
2018-03-14T19:33:00.428Z,14.23
2018-03-14T19:35:29.437Z,12.45
2018-03-14T19:37:57.700Z,13.63
2018-03-14T19:40:26.703Z,12.87
2018-03-14T19:42:54.948Z,12.07
2018-03-14T19:45:23.229Z,12.37
2018-03-14T19:47:51.470Z,11.83
2018-03-14T19:50:19.711Z,12.80
2018-03-14T19:52:48.732Z,11.80
2018-03-14T19:55:16.979Z,10.90
2018-03-14T19:57:45.223Z,10.90
2018-03-14T20:00:13.489Z,10.40
2018-03-14T20:02:41.759Z,10.57
2018-03-14T20:05:10.020Z,10.43
2018-03-14T20:07:39.040Z,11.90
2018-03-14T20:10:07.290Z,11.23
2018-03-14T20:12:36.323Z,10.57
2018-03-14T20:15:04.564Z,10.70
2018-03-14T20:17:33.583Z,11.00
2018-03-14T20:20:02.711Z,15.00
2018-03-14T20:22:31.681Z,13.60
2018-03-14T20:24:59.932Z,10.98
2018-03-14T20:27:28.204Z,13.73
2018-03-14T20:29:56.453Z,11.33
2018-03-14T20:32:24.692Z,11.63
2018-03-14T20:34:52.963Z,11.60
2018-03-14T20:37:21.968Z,9.93
2018-03-14T20:39:50.982Z,10.97
2018-03-14T20:42:19.246Z,10.83
2018-03-14T20:44:48.268Z,10.67
2018-03-14T20:47:16.521Z,10.73
2018-03-14T20:49:45.523Z,10.20
2018-03-14T20:52:13.787Z,9.97
2018-03-14T20:54:42.813Z,10.83
2018-03-14T20:57:11.060Z,10.53
2018-03-14T20:59:39.316Z,11.07
2018-03-14T21:02:07.569Z,11.10
2018-03-14T21:04:35.828Z,11.20
2018-03-14T21:07:04.093Z,11.35
2018-03-14T21:09:33.129Z,10.50
2018-03-14T21:12:02.109Z,10.30
2018-03-14T21:14:30.418Z,10.50
2018-03-14T21:16:59.396Z,11.02
2018-03-14T21:19:27.640Z,11.50
2018-03-14T21:21:56.672Z,10.85
2018-03-14T21:24:24.934Z,11.43
2018-03-14T21:26:53.952Z,11.33
2018-03-14T21:29:22.208Z,10.43
2018-03-14T21:31:51.238Z,12.68
2018-03-14T21:34:19.487Z,11.52
2018-03-14T21:36:48.400Z,12.13
2018-03-14T21:39:16.720Z,12.30
2018-03-14T21:41:44.944Z,11.57
2018-03-14T21:44:13.977Z,12.10
2018-03-14T21:46:42.251Z,12.77
2018-03-14T21:49:10.504Z,11.60
2018-03-14T21:51:38.760Z,13.10
2018-03-14T21:54:07.044Z,12.95
2018-03-14T21:56:35.291Z,11.90
2018-03-14T21:59:03.589Z,11.77
2018-03-14T22:01:31.968Z,12.57
2018-03-14T22:04:00.225Z,12.70
2018-03-14T22:06:28.477Z,12.33
2018-03-14T22:08:56.751Z,12.13
2018-03-14T22:11:25.021Z,12.13
2018-03-14T22:13:54.046Z,13.43
2018-03-14T22:16:22.452Z,14.63
2018-03-14T22:18:50.703Z,15.03
2018-03-14T22:21:18.958Z,14.77
2018-03-14T22:23:48.000Z,15.17
2018-03-14T22:26:16.251Z,15.73
2018-03-14T22:28:45.240Z,16.67
2018-03-14T22:31:14.283Z,15.00
2018-03-14T22:33:42.530Z,16.17
2018-03-14T22:36:10.780Z,16.73
2018-03-14T22:38:39.052Z,17.20
2018-03-14T22:41:07.308Z,17.90
2018-03-14T22:43:35.569Z,16.77
2018-03-14T22:46:03.844Z,16.08
2018-03-14T22:48:32.111Z,15.27
2018-03-14T22:51:00.367Z,16.40
2018-03-14T22:53:28.644Z,14.43
2018-03-14T22:55:56.895Z,13.50
2018-03-14T22:58:25.159Z,13.97
2018-03-14T23:00:53.429Z,14.57
2018-03-14T23:03:21.691Z,14.43
2018-03-14T23:05:49.956Z,14.00
2018-03-14T23:08:18.992Z,14.43
2018-03-14T23:10:47.243Z,14.67
2018-03-14T23:13:15.516Z,13.73
2018-03-14T23:15:44.532Z,14.00
2018-03-14T23:18:12.793Z,13.73
2018-03-14T23:20:41.832Z,14.10
2018-03-14T23:23:10.104Z,13.17
2018-03-14T23:25:38.352Z,14.32
2018-03-14T23:28:07.388Z,14.87
2018-03-14T23:30:35.653Z,14.30
2018-03-14T23:33:03.920Z,14.73
2018-03-14T23:35:32.932Z,14.77
2018-03-14T23:38:01.201Z,16.17
2018-03-14T23:40:30.225Z,17.23
2018-03-14T23:42:58.638Z,17.65
2018-03-14T23:45:26.896Z,17.25
2018-03-14T23:47:55.144Z,16.70
2018-03-14T23:50:23.928Z,18.08
2018-03-14T23:52:52.970Z,17.10
2018-03-14T23:55:21.225Z,16.95
2018-03-14T23:57:49.483Z,18.03
